Time;durP1;ratioP1;P1;durP2;ratioP2;P2;SDS_P1;SDS_P2;PMS_P1;PMS_P2;Temp;Humidity;BMP_temperature;BMP_pressure;BME280_temperature;BME280_humidity;BME280_pressure;Samples;Min_cycle;Max_cycle;Signal;HPM_P1;HPM_P2
2021/07/31 00:02:23;;;;;;;8.80;7.90;;;25.90;58.50;;;;;;5032643;28;20192;-48
2021/07/31 00:04:50;;;;;;;8.23;7.53;;;25.70;58.70;;;;;;5031621;28;20276;-48
2021/07/31 00:07:16;;;;;;;8.10;7.40;;;25.70;58.60;;;;;;5032717;28;20503;-48
2021/07/31 00:09:42;;;;;;;6.90;6.27;;;25.70;58.60;;;;;;5032659;28;20436;-47
2021/07/31 00:12:08;;;;;;;6.70;6.10;;;25.70;58.70;;;;;;5032297;28;20432;-47
2021/07/31 00:14:34;;;;;;;7.73;6.97;;;25.60;58.70;;;;;;5033052;28;20193;-47
2021/07/31 00:17:00;;;;;;;7.77;6.97;;;25.50;58.30;;;;;;5032303;28;20436;-47
2021/07/31 00:19:26;;;;;;;7.90;7.00;;;25.50;58.60;;;;;;5043196;28;20486;-47
2021/07/31 00:21:51;;;;;;;6.90;6.20;;;25.50;58.70;;;;;;5033455;28;20190;-47
2021/07/31 00:24:17;;;;;;;8.27;7.60;;;25.60;58.70;;;;;;5032949;28;20185;-49
2021/07/31 00:26:42;;;;;;;7.87;7.17;;;25.50;58.70;;;;;;5032096;28;20205;-47
2021/07/31 00:29:08;;;;;;;7.53;6.90;;;25.60;58.70;;;;;;5032140;28;20200;-46
2021/07/31 00:31:34;;;;;;;7.90;7.20;;;25.60;58.70;;;;;;5030518;28;20200;-47
2021/07/31 00:33:59;;;;;;;8.37;6.97;;;25.60;58.60;;;;;;5032605;28;20200;-46
2021/07/31 00:36:25;;;;;;;6.63;5.97;;;25.60;58.30;;;;;;5031768;28;20208;-47
2021/07/31 00:38:51;;;;;;;5.67;5.10;;;25.60;58.00;;;;;;5032089;28;20221;-47
2021/07/31 00:41:16;;;;;;;4.90;4.40;;;25.40;56.30;;;;;;5031897;28;20246;-47
2021/07/31 00:43:42;;;;;;;3.77;3.47;;;25.40;55.80;;;;;;5032494;28;20197;-48
2021/07/31 00:46:08;;;;;;;6.07;3.17;;;25.20;55.20;;;;;;5031477;28;20288;-47
2021/07/31 00:48:34;;;;;;;4.60;2.70;;;25.20;53.90;;;;;;5032103;28;20197;-47
2021/07/31 00:51:00;;;;;;;6.80;3.07;;;25.10;53.30;;;;;;5031652;28;20672;-47
2021/07/31 00:53:26;;;;;;;3.70;2.70;;;25.00;52.70;;;;;;5032187;28;20432;-47
2021/07/31 00:55:54;;;;;;;3.87;2.77;;;24.90;52.30;;;;;;5031509;28;20483;-47
2021/07/31 00:58:20;;;;;;;2.60;2.40;;;24.70;52.80;;;;;;5030225;28;20197;-48
2021/07/31 01:00:45;;;;;;;5.10;2.10;;;24.70;53.60;;;;;;5031539;28;20494;-48
2021/07/31 01:03:11;;;;;;;3.10;2.40;;;24.70;53.50;;;;;;5031913;28;20185;-48
2021/07/31 01:05:37;;;;;;;3.40;2.30;;;24.60;53.20;;;;;;5031891;28;20224;-50
2021/07/31 01:08:03;;;;;;;2.73;2.27;;;24.50;53.50;;;;;;5031863;28;20197;-47
2021/07/31 01:10:29;;;;;;;3.87;2.57;;;24.50;53.70;;;;;;5031566;28;20201;-47
2021/07/31 01:12:57;;;;;;;6.00;2.53;;;24.60;53.60;;;;;;5031395;28;20193;-47
2021/07/31 01:15:23;;;;;;;5.53;2.00;;;24.50;53.60;;;;;;5031771;28;20420;-47
2021/07/31 01:17:48;;;;;;;5.13;2.23;;;24.60;53.90;;;;;;5031163;28;20964;-48
2021/07/31 01:20:14;;;;;;;3.80;2.40;;;24.70;53.80;;;;;;5044751;28;20263;-47
2021/07/31 01:22:41;;;;;;;3.70;2.77;;;24.80;53.70;;;;;;5030509;28;20612;-50
2021/07/31 01:25:07;;;;;;;2.90;2.70;;;24.80;53.50;;;;;;5031099;28;20560;-47
2021/07/31 01:27:34;;;;;;;4.77;2.67;;;24.80;53.60;;;;;;5031083;28;20428;-47
2021/07/31 01:30:00;;;;;;;4.20;2.00;;;24.90;53.70;;;;;;5031264;28;20928;-48
2021/07/31 01:32:26;;;;;;;4.27;2.23;;;25.00;53.80;;;;;;5031231;28;20454;-48
2021/07/31 01:34:51;;;;;;;2.87;2.50;;;25.00;54.10;;;;;;5031628;28;20574;-48
2021/07/31 01:37:17;;;;;;;3.17;2.63;;;25.10;54.10;;;;;;5031093;28;20204;-48
2021/07/31 01:39:42;;;;;;;3.60;2.43;;;25.10;54.10;;;;;;5031184;28;20942;-50
2021/07/31 01:42:08;;;;;;;3.50;2.57;;;25.10;54.00;;;;;;5031015;28;20251;-47
2021/07/31 01:44:34;;;;;;;2.63;2.10;;;25.10;53.60;;;;;;5031695;28;20185;-47
2021/07/31 01:46:59;;;;;;;2.93;2.73;;;25.00;53.60;;;;;;5030629;28;20189;-47
2021/07/31 01:49:25;;;;;;;4.37;3.10;;;25.10;53.70;;;;;;5029521;28;20206;-49
2021/07/31 01:51:51;;;;;;;4.07;3.77;;;25.00;53.60;;;;;;5031282;28;20216;-47
2021/07/31 01:54:17;;;;;;;2.87;2.43;;;25.10;53.70;;;;;;5031402;28;20471;-47
2021/07/31 01:56:47;;;;;;;3.23;2.23;;;25.10;53.60;;;;;;5030961;28;20248;-47
2021/07/31 01:59:12;;;;;;;3.80;2.40;;;25.00;52.60;;;;;;5030741;28;20363;-47
2021/07/31 02:01:38;;;;;;;2.90;2.67;;;25.00;52.40;;;;;;5030744;28;20534;-47
2021/07/31 02:04:04;;;;;;;2.47;2.20;;;24.90;51.40;;;;;;5031507;28;20186;-47
2021/07/31 02:06:29;;;;;;;4.90;2.60;;;25.00;51.50;;;;;;5030507;28;20254;-47
2021/07/31 02:08:55;;;;;;;3.60;2.30;;;24.80;50.50;;;;;;5031128;28;20207;-48
2021/07/31 02:11:20;;;;;;;8.97;2.60;;;24.90;50.50;;;;;;5031080;28;20581;-48
2021/07/31 02:13:46;;;;;;;3.17;2.07;;;24.80;50.30;;;;;;5031675;28;20196;-47
2021/07/31 02:16:11;;;;;;;2.33;2.13;;;24.90;50.20;;;;;;5029262;28;20316;-48
2021/07/31 02:18:37;;;;;;;4.33;2.37;;;25.00;50.20;;;;;;5035970;28;20241;-46
2021/07/31 02:21:03;;;;;;;3.90;2.43;;;25.00;50.00;;;;;;5038771;28;20284;-47
2021/07/31 02:23:28;;;;;;;6.30;2.40;;;25.00;49.80;;;;;;5031261;28;20204;-47
2021/07/31 02:25:54;;;;;;;2.40;1.73;;;25.00;49.50;;;;;;5030733;28;20194;-47
2021/07/31 02:28:19;;;;;;;3.67;2.37;;;25.00;49.40;;;;;;5030282;28;20550;-47
2021/07/31 02:30:45;;;;;;;3.87;1.80;;;24.80;48.10;;;;;;5030966;28;20280;-47
2021/07/31 02:33:11;;;;;;;4.90;1.90;;;24.80;48.50;;;;;;5032701;28;20629;-47
2021/07/31 02:35:36;;;;;;;5.40;2.00;;;24.70;48.10;;;;;;5034724;28;20599;-48
2021/07/31 02:38:02;;;;;;;3.37;2.00;;;24.80;48.00;;;;;;5034374;28;20201;-47
2021/07/31 02:40:28;;;;;;;1.80;1.60;;;24.80;47.50;;;;;;5034197;28;20231;-47
2021/07/31 02:42:54;;;;;;;3.80;2.00;;;24.80;47.20;;;;;;5032386;28;20416;-48
2021/07/31 02:45:20;;;;;;;2.63;1.53;;;24.80;47.10;;;;;;5034921;28;20977;-48
2021/07/31 02:47:46;;;;;;;3.40;1.93;;;24.80;46.90;;;;;;5034123;28;20420;-47
2021/07/31 02:50:11;;;;;;;2.87;1.87;;;24.80;46.60;;;;;;5026047;28;20224;-47
2021/07/31 02:52:37;;;;;;;4.50;1.80;;;24.80;46.50;;;;;;5033821;28;20197;-46
2021/07/31 02:55:03;;;;;;;1.70;1.50;;;24.80;46.40;;;;;;5034406;28;20193;-48
2021/07/31 02:57:29;;;;;;;3.87;1.73;;;24.80;46.40;;;;;;5033722;28;20201;-47
2021/07/31 02:59:56;;;;;;;2.27;1.70;;;24.70;46.40;;;;;;5033919;28;20985;-46
2021/07/31 03:02:21;;;;;;;1.60;1.50;;;24.70;46.50;;;;;;5033376;28;20424;-47
2021/07/31 03:04:47;;;;;;;2.20;1.50;;;24.70;46.60;;;;;;5034451;28;20431;-48
2021/07/31 03:07:13;;;;;;;4.87;1.70;;;24.60;46.50;;;;;;5033910;28;20189;-47
2021/07/31 03:09:38;;;;;;;7.63;2.00;;;24.60;46.60;;;;;;5032350;28;20197;-47
2021/07/31 03:12:04;;;;;;;1.67;1.53;;;24.50;46.50;;;;;;5033301;28;20197;-47
2021/07/31 03:14:29;;;;;;;4.80;1.70;;;24.40;46.50;;;;;;5034401;28;20197;-46
2021/07/31 03:16:55;;;;;;;8.00;1.93;;;24.40;46.60;;;;;;5033284;28;20216;-46
2021/07/31 03:19:21;;;;;;;1.73;1.60;;;24.40;46.50;;;;;;5045063;28;20224;-48
2021/07/31 03:21:46;;;;;;;2.13;1.50;;;24.40;46.60;;;;;;5035173;28;20642;-47
2021/07/31 03:24:12;;;;;;;2.70;1.40;;;24.30;46.70;;;;;;5034279;28;20250;-47
2021/07/31 03:26:37;;;;;;;8.37;1.70;;;24.30;46.80;;;;;;5033498;28;20283;-48
2021/07/31 03:29:03;;;;;;;3.23;1.90;;;24.30;46.90;;;;;;5033417;28;20259;-47
2021/07/31 03:31:29;;;;;;;3.30;1.87;;;24.30;46.80;;;;;;5033105;28;20660;-48
2021/07/31 03:33:54;;;;;;;2.20;1.93;;;24.30;46.90;;;;;;5033749;28;20601;-48
2021/07/31 03:36:20;;;;;;;3.57;2.10;;;24.20;47.10;;;;;;5031596;28;20709;-46
2021/07/31 03:38:46;;;;;;;4.17;2.07;;;24.20;47.50;;;;;;5033478;28;20216;-47
2021/07/31 03:41:11;;;;;;;4.30;1.57;;;24.10;48.40;;;;;;5032949;28;20193;-48
2021/07/31 03:43:37;;;;;;;7.20;1.93;;;24.10;48.10;;;;;;5033450;28;20312;-47
2021/07/31 03:46:06;;;;;;;2.80;1.47;;;24.00;48.40;;;;;;5032450;28;20244;-47
2021/07/31 03:48:32;;;;;;;2.80;1.73;;;24.00;48.90;;;;;;5027506;28;20222;-49
2021/07/31 03:50:58;;;;;;;1.67;1.57;;;23.90;49.20;;;;;;5030249;28;20978;-47
2021/07/31 03:53:23;;;;;;;3.63;2.07;;;23.90;49.50;;;;;;5033332;28;20196;-48
2021/07/31 03:55:49;;;;;;;2.47;1.53;;;23.80;49.80;;;;;;5032678;28;20212;-47
2021/07/31 03:58:15;;;;;;;3.07;2.00;;;23.80;49.90;;;;;;5033136;28;20194;-47
2021/07/31 04:00:42;;;;;;;2.53;1.97;;;23.80;50.10;;;;;;5032880;28;20267;-51
2021/07/31 04:03:08;;;;;;;2.43;2.20;;;23.70;50.30;;;;;;5031678;28;20432;-47
2021/07/31 04:05:34;;;;;;;4.27;2.13;;;23.60;50.70;;;;;;5033037;28;20430;-48
2021/07/31 04:07:59;;;;;;;4.30;2.27;;;23.60;51.00;;;;;;5032427;28;20420;-50
2021/07/31 04:10:25;;;;;;;2.53;2.33;;;23.50;51.10;;;;;;5033076;28;20197;-47
2021/07/31 04:12:50;;;;;;;2.90;2.17;;;23.50;51.70;;;;;;5032472;28;20219;-47
2021/07/31 04:15:16;;;;;;;3.30;2.50;;;23.40;52.10;;;;;;5032875;28;20689;-46
2021/07/31 04:17:42;;;;;;;4.77;2.77;;;23.40;52.10;;;;;;5032226;28;20298;-47
2021/07/31 04:20:08;;;;;;;5.23;2.80;;;23.40;52.80;;;;;;5046029;28;20256;-46
2021/07/31 04:22:34;;;;;;;6.27;3.10;;;23.30;53.00;;;;;;5032323;28;20292;-48
2021/07/31 04:25:00;;;;;;;6.50;2.43;;;23.30;53.10;;;;;;5032584;28;21011;-47
2021/07/31 04:27:25;;;;;;;4.27;2.17;;;23.30;53.10;;;;;;5031968;28;20682;-46
2021/07/31 04:29:51;;;;;;;4.80;2.57;;;23.30;53.20;;;;;;5030815;28;20673;-46
2021/07/31 04:32:17;;;;;;;3.33;2.20;;;23.30;53.20;;;;;;5032131;28;20219;-47
2021/07/31 04:34:42;;;;;;;3.13;1.90;;;23.20;53.20;;;;;;5032812;28;20600;-46
2021/07/31 04:37:08;;;;;;;2.43;2.23;;;23.20;53.30;;;;;;5032193;28;20216;-47
2021/07/31 04:39:33;;;;;;;4.07;2.27;;;23.20;53.40;;;;;;5032337;28;20212;-46
2021/07/31 04:42:00;;;;;;;6.73;2.27;;;23.20;53.30;;;;;;5031732;28;20235;-47
2021/07/31 04:44:25;;;;;;;8.17;2.30;;;23.20;53.20;;;;;;5032505;28;20192;-46
2021/07/31 04:46:51;;;;;;;3.17;2.83;;;23.20;53.10;;;;;;5031863;28;20443;-47
2021/07/31 04:49:17;;;;;;;2.97;2.60;;;23.20;53.10;;;;;;5031782;28;20197;-48
2021/07/31 04:51:44;;;;;;;6.70;2.47;;;23.10;53.10;;;;;;5031886;28;20193;-46
2021/07/31 04:54:10;;;;;;;6.63;2.27;;;23.10;53.40;;;;;;5032386;28;20201;-46
2021/07/31 04:56:35;;;;;;;8.20;2.33;;;22.90;54.20;;;;;;5029348;28;20454;-46
2021/07/31 04:59:01;;;;;;;3.40;2.57;;;22.50;54.90;;;;;;5031589;28;20464;-47
2021/07/31 05:01:26;;;;;;;7.20;2.57;;;21.90;56.30;;;;;;5031720;28;20193;-47
2021/07/31 05:03:52;;;;;;;3.10;2.73;;;21.90;56.80;;;;;;5032233;28;20199;-47
2021/07/31 05:06:18;;;;;;;3.57;2.13;;;22.10;57.00;;;;;;5031707;28;20539;-49
2021/07/31 05:08:43;;;;;;;3.77;2.80;;;22.00;57.00;;;;;;5031516;28;20205;-47
2021/07/31 05:11:09;;;;;;;3.37;2.53;;;21.80;57.80;;;;;;5031415;28;20193;-47
2021/07/31 05:13:38;;;;;;;4.40;2.70;;;21.70;58.00;;;;;;5031930;28;20197;-48
2021/07/31 05:16:04;;;;;;;5.10;2.43;;;21.80;57.70;;;;;;5031557;28;20557;-47
2021/07/31 05:18:30;;;;;;;2.50;2.30;;;22.00;57.10;;;;;;5035347;28;20463;-47
2021/07/31 05:20:58;;;;;;;5.20;2.30;;;22.10;56.60;;;;;;5039627;28;20510;-48
2021/07/31 05:23:23;;;;;;;6.37;2.87;;;22.30;56.70;;;;;;5031135;28;20205;-47
2021/07/31 05:25:49;;;;;;;4.93;2.80;;;22.50;55.80;;;;;;5031278;28;20463;-47
2021/07/31 05:28:15;;;;;;;9.30;2.80;;;22.60;55.60;;;;;;5031227;28;20204;-47
2021/07/31 05:30:41;;;;;;;5.83;2.70;;;22.70;55.30;;;;;;5030888;28;20657;-47
2021/07/31 05:33:07;;;;;;;2.83;2.50;;;22.70;55.60;;;;;;5031580;28;20591;-47
2021/07/31 05:35:33;;;;;;;5.37;3.20;;;22.70;55.60;;;;;;5031815;28;20481;-47
2021/07/31 05:37:59;;;;;;;3.87;2.67;;;22.80;55.90;;;;;;5030670;28;20236;-47
2021/07/31 05:40:24;;;;;;;2.93;2.63;;;22.70;56.20;;;;;;5031459;28;20612;-49
2021/07/31 05:42:50;;;;;;;4.10;2.63;;;22.60;56.30;;;;;;5030768;28;20189;-47
2021/07/31 05:45:16;;;;;;;5.80;3.20;;;22.80;56.10;;;;;;5031806;28;20189;-47
2021/07/31 05:47:44;;;;;;;3.10;2.80;;;23.00;55.90;;;;;;5029153;28;20315;-50
2021/07/31 05:50:11;;;;;;;5.60;2.27;;;23.10;55.30;;;;;;5062969;28;20223;-47
2021/07/31 05:52:37;;;;;;;2.70;2.50;;;23.20;54.90;;;;;;5030985;28;20424;-47
2021/07/31 05:55:04;;;;;;;5.13;2.90;;;23.30;54.70;;;;;;5031708;28;20451;-47
2021/07/31 05:57:30;;;;;;;8.30;2.00;;;23.40;54.60;;;;;;5030735;28;20439;-47
2021/07/31 05:59:56;;;;;;;2.33;1.83;;;23.50;53.50;;;;;;5030845;28;20480;-48
2021/07/31 06:02:22;;;;;;;8.33;2.70;;;23.30;53.70;;;;;;5030965;28;20276;-47
2021/07/31 06:04:48;;;;;;;10.63;3.00;;;23.30;53.30;;;;;;5031367;28;20772;-48
2021/07/31 06:07:13;;;;;;;4.43;2.27;;;23.50;53.50;;;;;;5031053;28;20604;-47
2021/07/31 06:09:40;;;;;;;4.20;2.30;;;23.40;53.60;;;;;;5035083;28;20201;-47
2021/07/31 06:12:08;;;;;;;2.60;2.03;;;23.30;53.30;;;;;;5034330;28;20223;-47
2021/07/31 06:14:36;;;;;;;8.50;2.10;;;23.40;53.00;;;;;;5033697;28;20420;-47
2021/07/31 06:17:01;;;;;;;1.90;1.70;;;23.50;51.40;;;;;;5034500;28;20484;-47
2021/07/31 06:19:27;;;;;;;2.33;1.50;;;23.70;50.50;;;;;;5046936;28;20576;-47
2021/07/31 06:21:53;;;;;;;8.03;2.10;;;23.90;50.10;;;;;;5035313;28;20192;-47
2021/07/31 06:24:19;;;;;;;4.70;1.63;;;24.00;49.50;;;;;;5035123;28;20421;-47
2021/07/31 06:26:45;;;;;;;3.17;1.77;;;24.10;49.10;;;;;;5034700;28;20196;-47
2021/07/31 06:29:11;;;;;;;3.13;2.00;;;24.30;49.20;;;;;;5034324;28;20228;-47
2021/07/31 06:31:36;;;;;;;2.80;1.90;;;24.40;49.10;;;;;;5034196;28;20452;-48
2021/07/31 06:34:02;;;;;;;2.40;2.00;;;24.60;48.90;;;;;;5035022;28;20193;-47
2021/07/31 06:36:28;;;;;;;3.07;1.90;;;24.50;47.80;;;;;;5034244;28;20193;-50
2021/07/31 06:38:54;;;;;;;6.10;1.70;;;24.60;47.30;;;;;;5034116;28;20284;-48
2021/07/31 06:41:20;;;;;;;7.30;1.80;;;24.70;47.30;;;;;;5032431;28;20519;-47
2021/07/31 06:43:45;;;;;;;4.30;1.90;;;24.80;47.20;;;;;;5034898;28;20244;-48
2021/07/31 06:46:16;;;;;;;4.93;1.83;;;24.90;46.80;;;;;;5034132;28;20197;-47
2021/07/31 06:48:42;;;;;;;2.47;1.80;;;25.10;46.70;;;;;;5034413;28;20638;-48
2021/07/31 06:51:09;;;;;;;2.53;1.37;;;25.20;46.30;;;;;;5034336;28;20428;-48
2021/07/31 06:53:35;;;;;;;4.40;2.00;;;25.40;46.10;;;;;;5034542;28;20880;-48
2021/07/31 06:56:01;;;;;;;4.20;2.07;;;25.50;45.90;;;;;;5034253;28;20902;-48
2021/07/31 06:58:27;;;;;;;6.63;2.40;;;25.60;44.80;;;;;;5034072;28;20428;-48
2021/07/31 07:00:53;;;;;;;4.50;2.00;;;25.60;44.90;;;;;;5033530;28;20502;-47
2021/07/31 07:03:19;;;;;;;4.47;1.60;;;25.60;45.10;;;;;;5034415;28;20634;-48
2021/07/31 07:05:44;;;;;;;4.33;1.90;;;25.60;45.10;;;;;;5033879;28;20593;-48
2021/07/31 07:08:10;;;;;;;5.17;1.87;;;25.70;45.50;;;;;;5030968;28;20436;-48
2021/07/31 07:10:36;;;;;;;4.13;2.00;;;25.70;45.10;;;;;;5034203;28;20649;-50
2021/07/31 07:13:02;;;;;;;5.90;2.00;;;25.90;45.10;;;;;;5033787;28;20185;-47
2021/07/31 07:15:28;;;;;;;3.27;1.60;;;26.10;44.30;;;;;;5033813;28;20530;-47
2021/07/31 07:17:55;;;;;;;4.80;2.00;;;26.20;44.60;;;;;;5033336;28;20245;-47
2021/07/31 07:20:20;;;;;;;3.80;1.73;;;26.40;44.20;;;;;;5046244;28;20480;-49
2021/07/31 07:22:46;;;;;;;4.23;1.37;;;26.50;44.50;;;;;;5033783;28;20431;-49
2021/07/31 07:25:11;;;;;;;3.70;1.90;;;26.80;44.00;;;;;;5033769;28;20284;-48
2021/07/31 07:27:37;;;;;;;5.77;1.93;;;26.90;43.60;;;;;;5033355;28;20669;-48
2021/07/31 07:30:04;;;;;;;2.83;2.10;;;27.10;43.30;;;;;;5033748;28;20196;-50
2021/07/31 07:32:30;;;;;;;3.60;1.90;;;27.20;43.50;;;;;;5033350;28;20204;-49
2021/07/31 07:34:55;;;;;;;2.97;1.77;;;27.20;43.10;;;;;;5031799;28;20440;-50
2021/07/31 07:37:21;;;;;;;3.43;2.17;;;27.20;42.70;;;;;;5033186;28;20196;-47
2021/07/31 07:39:46;;;;;;;2.73;1.70;;;27.30;41.80;;;;;;5033539;28;20224;-47
2021/07/31 07:42:12;;;;;;;6.20;2.40;;;27.30;41.80;;;;;;5033506;28;20653;-49
2021/07/31 07:44:37;;;;;;;3.20;1.50;;;27.40;41.70;;;;;;5033619;28;20186;-48
2021/07/31 07:47:03;;;;;;;7.00;2.50;;;27.40;41.90;;;;;;5032960;28;20190;-49
2021/07/31 07:49:29;;;;;;;6.43;1.80;;;27.50;40.50;;;;;;5025460;28;20239;-47
2021/07/31 07:51:54;;;;;;;5.60;1.87;;;27.50;40.30;;;;;;5032914;28;20240;-48
2021/07/31 07:54:20;;;;;;;3.50;1.87;;;27.30;39.90;;;;;;5033631;28;20229;-49
2021/07/31 07:56:46;;;;;;;4.03;1.80;;;27.20;40.40;;;;;;5032757;28;20216;-48
2021/07/31 07:59:11;;;;;;;4.73;1.50;;;27.20;39.70;;;;;;5033074;28;20267;-49
2021/07/31 08:01:37;;;;;;;3.63;1.70;;;27.20;39.70;;;;;;5031098;28;20240;-47
2021/07/31 08:04:03;;;;;;;3.10;2.00;;;27.00;40.40;;;;;;5033418;28;20205;-47
2021/07/31 08:06:28;;;;;;;3.50;1.40;;;26.70;40.90;;;;;;5032580;28;20201;-47
2021/07/31 08:08:54;;;;;;;4.37;1.80;;;26.70;40.80;;;;;;5032645;28;20822;-47
2021/07/31 08:11:20;;;;;;;1.40;1.30;;;26.60;41.20;;;;;;5032451;28;20200;-47
2021/07/31 08:13:45;;;;;;;6.57;2.10;;;26.80;41.00;;;;;;5033095;28;20243;-49
2021/07/31 08:16:11;;;;;;;3.17;1.83;;;26.70;40.80;;;;;;5032467;28;20243;-47
2021/07/31 08:18:36;;;;;;;4.93;1.70;;;26.70;41.10;;;;;;5037728;28;20959;-47
2021/07/31 08:21:02;;;;;;;3.03;1.90;;;26.80;41.50;;;;;;5040508;28;20259;-48
2021/07/31 08:23:28;;;;;;;4.80;1.70;;;27.00;41.30;;;;;;5032992;28;20552;-49
2021/07/31 08:25:54;;;;;;;4.93;1.97;;;27.10;41.00;;;;;;5032367;28;20550;-48
2021/07/31 08:28:19;;;;;;;3.87;1.50;;;27.30;40.50;;;;;;5031091;28;20185;-48
2021/07/31 08:30:45;;;;;;;4.03;2.10;;;27.50;39.80;;;;;;5032287;28;20189;-48
2021/07/31 08:33:10;;;;;;;3.30;1.70;;;27.50;39.70;;;;;;5032806;28;20534;-48
2021/07/31 08:35:36;;;;;;;7.90;1.80;;;27.30;39.70;;;;;;5032735;28;20196;-48
2021/07/31 08:38:02;;;;;;;4.13;1.80;;;27.40;40.60;;;;;;5031935;28;20193;-49
2021/07/31 08:40:28;;;;;;;5.70;2.00;;;27.50;40.50;;;;;;5032681;28;20600;-48
2021/07/31 08:42:54;;;;;;;7.50;2.27;;;27.70;40.40;;;;;;5031647;28;20198;-48
2021/07/31 08:45:20;;;;;;;1.87;1.70;;;27.70;39.80;;;;;;5032835;28;20772;-47
2021/07/31 08:47:47;;;;;;;3.03;1.50;;;27.80;39.60;;;;;;5031593;28;20189;-49
2021/07/31 08:50:14;;;;;;;2.20;1.97;;;27.80;39.80;;;;;;5024717;28;20264;-48
2021/07/31 08:52:45;;;;;;;3.70;1.40;;;27.90;40.00;;;;;;5031287;28;20420;-50
2021/07/31 08:55:10;;;;;;;2.43;1.80;;;28.10;39.70;;;;;;5031571;28;20785;-48
2021/07/31 08:57:36;;;;;;;2.67;1.87;;;28.30;39.30;;;;;;5031089;28;20424;-47
2021/07/31 09:00:02;;;;;;;2.30;1.83;;;28.40;39.10;;;;;;5032328;28;20254;-49
2021/07/31 09:02:40;;;;;;;2.80;1.87;;;28.60;38.10;;;;;;5031549;28;20255;-48
2021/07/31 09:05:07;;;;;;;2.40;1.53;;;28.80;38.10;;;;;;5031944;28;20438;-47
2021/07/31 09:07:32;;;;;;;2.57;1.60;;;28.80;37.00;;;;;;5031032;28;20514;-48
2021/07/31 09:10:24;;;;;;;3.07;1.77;;;28.60;37.30;;;;;;5030670;28;20836;-48
2021/07/31 09:13:04;;;;;;;4.67;1.90;;;28.70;38.00;;;;;;5031514;28;20194;-48
2021/07/31 09:15:37;;;;;;;7.17;1.70;;;28.70;37.30;;;;;;5031899;28;20432;-47
2021/07/31 09:18:22;;;;;;;2.87;1.40;;;28.70;38.40;;;;;;5030818;28;20494;-48
2021/07/31 09:21:14;;;;;;;5.10;2.00;;;28.80;38.60;;;;;;5029688;28;20471;-49
2021/07/31 09:23:51;;;;;;;2.93;1.60;;;29.00;39.10;;;;;;5032186;28;20446;-48
2021/07/31 09:26:23;;;;;;;3.00;1.70;;;29.20;38.60;;;;;;5030814;28;20569;-49
2021/07/31 09:29:05;;;;;;;6.53;1.73;;;29.40;38.10;;;;;;5031274;28;20439;-48
2021/07/31 09:31:32;;;;;;;2.77;1.93;;;29.40;37.40;;;;;;5031139;28;20440;-48
2021/07/31 09:33:59;;;;;;;3.87;1.40;;;29.40;37.40;;;;;;5031529;28;20428;-48
2021/07/31 09:36:35;;;;;;;2.80;1.60;;;29.20;36.20;;;;;;5031055;28;20928;-48
2021/07/31 09:39:01;;;;;;;3.00;2.13;;;29.20;38.30;;;;;;5031231;28;20562;-47
2021/07/31 09:41:38;;;;;;;4.20;2.03;;;29.40;38.70;;;;;;5031240;28;20899;-49
2021/07/31 09:44:11;;;;;;;2.90;1.73;;;29.40;37.40;;;;;;5031049;28;20305;-47
2021/07/31 09:46:51;;;;;;;3.37;1.50;;;29.40;36.50;;;;;;5029661;28;20466;-49
2021/07/31 09:49:23;;;;;;;2.97;1.80;;;29.50;36.80;;;;;;5030831;28;20864;-49
2021/07/31 09:51:55;;;;;;;3.97;2.00;;;29.60;37.40;;;;;;5028807;28;20447;-49
2021/07/31 09:54:22;;;;;;;3.83;2.03;;;29.70;37.10;;;;;;5031487;28;20431;-48
2021/07/31 09:56:53;;;;;;;2.40;1.70;;;29.60;36.80;;;;;;5030628;28;20420;-51
2021/07/31 09:59:21;;;;;;;2.07;1.80;;;29.50;36.40;;;;;;5030846;28;20486;-48
2021/07/31 10:01:50;;;;;;;3.53;3.03;;;29.60;35.90;;;;;;5031000;28;20420;-49
2021/07/31 10:04:17;;;;;;;2.00;1.70;;;29.60;36.70;;;;;;5031487;28;20950;-48
2021/07/31 10:06:43;;;;;;;3.03;1.53;;;29.60;37.00;;;;;;5030715;28;20498;-48
2021/07/31 10:09:10;;;;;;;6.00;1.87;;;29.60;36.60;;;;;;5031108;28;20531;-48
2021/07/31 10:11:37;;;;;;;2.37;1.50;;;29.90;37.10;;;;;;5030699;28;20573;-49
2021/07/31 10:14:05;;;;;;;4.40;1.60;;;30.10;36.40;;;;;;5029671;28;20428;-48
2021/07/31 10:16:31;;;;;;;2.90;1.70;;;30.00;35.60;;;;;;5030722;28;20428;-48
2021/07/31 10:19:03;;;;;;;5.20;1.87;;;30.20;35.60;;;;;;5038791;28;20469;-48
2021/07/31 10:21:33;;;;;;;2.03;1.80;;;30.40;35.70;;;;;;5034955;28;20439;-49
2021/07/31 10:24:08;;;;;;;2.77;1.60;;;30.30;35.60;;;;;;5031198;28;20430;-49
2021/07/31 10:26:35;;;;;;;3.30;1.73;;;30.40;34.80;;;;;;5030306;28;20435;-48
2021/07/31 10:29:29;;;;;;;3.17;2.00;;;30.40;35.10;;;;;;5030866;28;20527;-48
2021/07/31 10:31:55;;;;;;;5.17;1.47;;;30.60;34.80;;;;;;5028272;28;20483;-48
2021/07/31 10:34:49;;;;;;;2.83;1.60;;;30.70;35.40;;;;;;5029186;28;20459;-49
2021/07/31 10:37:27;;;;;;;3.33;1.73;;;31.10;34.60;;;;;;5026952;28;20530;-50
2021/07/31 10:39:54;;;;;;;4.27;1.70;;;31.40;35.70;;;;;;5026960;28;20586;-48
2021/07/31 10:42:20;;;;;;;4.00;1.77;;;31.60;35.30;;;;;;5029786;28;20428;-49
2021/07/31 10:45:16;;;;;;;3.73;1.63;;;31.70;32.90;;;;;;5031285;28;20931;-50
2021/07/31 10:47:43;;;;;;;1.70;1.60;;;31.60;32.70;;;;;;5027445;28;20185;-50
2021/07/31 10:50:29;;;;;;;2.10;1.43;;;31.60;32.20;;;;;;5032831;28;20947;-49
2021/07/31 10:53:02;;;;;;;3.13;1.87;;;31.90;33.80;;;;;;5020248;28;20446;-49
2021/07/31 10:55:36;;;;;;;3.20;1.67;;;32.10;32.50;;;;;;5031709;28;20444;-49
2021/07/31 10:58:13;;;;;;;2.37;1.57;;;32.20;32.00;;;;;;5031640;28;20439;-48
2021/07/31 11:00:46;;;;;;;1.40;1.30;;;31.90;31.40;;;;;;5033951;28;20543;-49
2021/07/31 11:03:13;;;;;;;2.13;1.50;;;31.90;33.10;;;;;;5033252;28;20484;-48
2021/07/31 11:05:48;;;;;;;3.33;1.50;;;32.00;31.70;;;;;;5033909;28;20765;-49
2021/07/31 11:08:13;;;;;;;4.83;1.87;;;31.90;31.60;;;;;;5030610;28;20456;-49
2021/07/31 11:10:43;;;;;;;3.93;1.83;;;32.20;31.50;;;;;;5032667;28;20432;-49
2021/07/31 11:13:21;;;;;;;5.70;2.00;;;32.40;31.10;;;;;;5033803;28;20197;-51
2021/07/31 11:15:55;;;;;;;2.30;1.47;;;32.60;30.60;;;;;;5033326;28;20432;-49
2021/07/31 11:18:22;;;;;;;2.83;1.60;;;33.00;30.80;;;;;;5032887;28;20812;-49
2021/07/31 11:20:48;;;;;;;3.67;2.03;;;33.00;30.00;;;;;;5032139;28;20483;-50
2021/07/31 11:23:15;;;;;;;1.60;1.50;;;33.00;30.00;;;;;;5033741;28;20447;-50
2021/07/31 11:25:42;;;;;;;1.90;1.50;;;33.20;29.80;;;;;;5032054;28;20293;-50
2021/07/31 11:28:09;;;;;;;8.17;1.90;;;33.10;29.30;;;;;;5032401;28;20447;-49
2021/07/31 11:30:37;;;;;;;3.90;2.00;;;32.80;29.80;;;;;;5033095;28;20443;-49
2021/07/31 11:33:17;;;;;;;1.80;1.70;;;32.80;29.60;;;;;;5032282;28;20771;-49
2021/07/31 11:35:43;;;;;;;2.73;1.90;;;32.80;29.80;;;;;;5029650;28;20593;-49
2021/07/31 11:38:37;;;;;;;1.53;1.40;;;32.70;30.00;;;;;;5022731;28;20897;-49
2021/07/31 11:41:07;;;;;;;2.60;1.73;;;32.80;29.70;;;;;;5032262;28;20549;-50
2021/07/31 11:43:49;;;;;;;4.00;1.70;;;32.90;29.60;;;;;;5033462;28;20436;-49
2021/07/31 11:46:32;;;;;;;4.50;1.90;;;33.00;29.80;;;;;;5032616;28;20811;-49
2021/07/31 11:49:03;;;;;;;3.23;2.40;;;33.00;29.40;;;;;;5032798;28;20506;-49
2021/07/31 11:51:29;;;;;;;4.27;2.30;;;32.90;30.00;;;;;;5032524;28;20440;-49
2021/07/31 11:53:55;;;;;;;3.43;2.10;;;33.00;30.00;;;;;;5033055;28;20447;-49
2021/07/31 11:56:24;;;;;;;3.20;2.10;;;33.00;30.00;;;;;;5031864;28;21006;-49
2021/07/31 11:58:53;;;;;;;1.70;1.60;;;33.00;30.60;;;;;;5029043;28;20439;-49
2021/07/31 12:01:19;;;;;;;2.90;1.70;;;33.00;31.20;;;;;;5031062;28;20939;-52
2021/07/31 12:03:49;;;;;;;2.43;2.23;;;33.00;30.80;;;;;;5031066;28;20435;-49
2021/07/31 12:06:35;;;;;;;3.33;2.00;;;33.20;30.00;;;;;;5029691;28;20446;-49
2021/07/31 12:09:07;;;;;;;3.17;2.27;;;33.20;29.50;;;;;;5031572;28;20478;-49
2021/07/31 12:11:42;;;;;;;2.47;2.03;;;33.20;29.90;;;;;;5031149;28;20443;-50
2021/07/31 12:14:39;;;;;;;1.97;1.73;;;33.20;29.60;;;;;;5031856;28;20444;-49
2021/07/31 12:17:17;;;;;;;2.50;1.93;;;33.20;29.40;;;;;;5031309;28;20483;-50
2021/07/31 12:20:03;;;;;;;3.57;1.87;;;33.20;29.10;;;;;;5032644;28;20479;-49
2021/07/31 12:22:31;;;;;;;3.40;2.40;;;33.20;29.10;;;;;;5030693;28;20447;-51
2021/07/31 12:25:18;;;;;;;2.30;2.10;;;33.00;29.20;;;;;;5030409;28;20428;-49
2021/07/31 12:27:55;;;;;;;3.20;2.10;;;32.80;29.40;;;;;;5029836;28;20789;-49
2021/07/31 12:30:38;;;;;;;2.30;1.93;;;32.50;30.10;;;;;;5029637;28;20489;-50
2021/07/31 12:33:06;;;;;;;3.63;1.90;;;32.60;30.00;;;;;;5031698;28;20805;-49
2021/07/31 12:35:39;;;;;;;4.20;2.07;;;32.60;29.70;;;;;;5032224;28;20444;-51
2021/07/31 12:38:11;;;;;;;3.37;2.03;;;32.60;29.90;;;;;;5030854;28;20440;-51
2021/07/31 12:40:38;;;;;;;3.20;1.97;;;32.60;30.00;;;;;;5031422;28;20510;-52
2021/07/31 12:43:12;;;;;;;2.90;1.90;;;32.40;29.90;;;;;;5030409;28;20440;-50
2021/07/31 12:45:39;;;;;;;2.27;1.90;;;32.30;30.30;;;;;;5031322;28;20467;-50
2021/07/31 12:48:05;;;;;;;2.23;2.03;;;32.30;30.10;;;;;;5031044;28;20432;-49
2021/07/31 12:50:32;;;;;;;3.30;2.10;;;32.40;30.30;;;;;;5031584;28;20436;-49
2021/07/31 12:52:59;;;;;;;5.27;2.33;;;32.60;29.80;;;;;;5030886;28;20471;-49